sensor_id;sensor_type;location;lat;lon;timestamp;temperature;humidity
13976;DHT22;7062;49.792;9.946;2022-12-07T00:00:39;4.60;99.90
13976;DHT22;7062;49.792;9.946;2022-12-07T00:03:04;4.70;99.90
13976;DHT22;7062;49.792;9.946;2022-12-07T00:05:30;4.70;99.90
13976;DHT22;7062;49.792;9.946;2022-12-07T00:07:55;4.70;99.90
13976;DHT22;7062;49.792;9.946;2022-12-07T00:10:21;4.80;99.90
13976;DHT22;7062;49.792;9.946;2022-12-07T00:12:47;4.80;99.90
13976;DHT22;7062;49.792;9.946;2022-12-07T00:15:12;4.80;99.90
13976;DHT22;7062;49.792;9.946;2022-12-07T00:17:38;4.80;99.90
13976;DHT22;7062;49.792;9.946;2022-12-07T00:20:04;5.00;99.90
13976;DHT22;7062;49.792;9.946;2022-12-07T00:22:30;5.00;99.90
13976;DHT22;7062;49.792;9.946;2022-12-07T00:24:55;5.00;99.90
13976;DHT22;7062;49.792;9.946;2022-12-07T00:27:21;5.00;99.90
13976;DHT22;7062;49.792;9.946;2022-12-07T00:29:47;5.00;99.90
13976;DHT22;7062;49.792;9.946;2022-12-07T00:32:12;4.90;99.90
13976;DHT22;7062;49.792;9.946;2022-12-07T00:34:44;5.10;99.90
13976;DHT22;7062;49.792;9.946;2022-12-07T00:37:10;5.00;99.90
13976;DHT22;7062;49.792;9.946;2022-12-07T00:39:35;5.00;99.90
13976;DHT22;7062;49.792;9.946;2022-12-07T00:42:01;5.10;99.90
13976;DHT22;7062;49.792;9.946;2022-12-07T00:44:27;5.10;99.90
13976;DHT22;7062;49.792;9.946;2022-12-07T00:46:52;5.10;99.90
13976;DHT22;7062;49.792;9.946;2022-12-07T00:49:18;5.10;99.90
13976;DHT22;7062;49.792;9.946;2022-12-07T00:51:43;5.20;99.90
13976;DHT22;7062;49.792;9.946;2022-12-07T00:54:09;5.30;99.90
13976;DHT22;7062;49.792;9.946;2022-12-07T00:56:35;5.20;99.90
13976;DHT22;7062;49.792;9.946;2022-12-07T00:59:02;5.20;99.90
13976;DHT22;7062;49.792;9.946;2022-12-07T01:01:32;5.10;99.90
13976;DHT22;7062;49.792;9.946;2022-12-07T01:03:59;5.00;99.90
13976;DHT22;7062;49.792;9.946;2022-12-07T01:06:26;5.00;99.90
13976;DHT22;7062;49.792;9.946;2022-12-07T01:08:52;5.00;99.90
13976;DHT22;7062;49.792;9.946;2022-12-07T01:11:21;5.00;99.90
13976;DHT22;7062;49.792;9.946;2022-12-07T01:13:48;4.90;99.90
13976;DHT22;7062;49.792;9.946;2022-12-07T01:16:15;4.90;99.90
13976;DHT22;7062;49.792;9.946;2022-12-07T01:18:41;5.00;99.90
13976;DHT22;7062;49.792;9.946;2022-12-07T01:21:22;4.90;99.90
13976;DHT22;7062;49.792;9.946;2022-12-07T01:23:49;5.00;99.90
13976;DHT22;7062;49.792;9.946;2022-12-07T01:26:18;5.10;99.90
13976;DHT22;7062;49.792;9.946;2022-12-07T01:28:44;5.00;99.90
13976;DHT22;7062;49.792;9.946;2022-12-07T01:31:15;5.00;99.90
13976;DHT22;7062;49.792;9.946;2022-12-07T01:33:43;5.00;99.90
13976;DHT22;7062;49.792;9.946;2022-12-07T01:36:18;5.10;99.90
13976;DHT22;7062;49.792;9.946;2022-12-07T01:38:46;5.10;99.90
13976;DHT22;7062;49.792;9.946;2022-12-07T01:41:12;5.00;99.90
13976;DHT22;7062;49.792;9.946;2022-12-07T01:46:33;5.10;99.90
13976;DHT22;7062;49.792;9.946;2022-12-07T01:48:59;5.10;99.90
13976;DHT22;7062;49.792;9.946;2022-12-07T01:51:26;5.10;99.90
13976;DHT22;7062;49.792;9.946;2022-12-07T01:53:53;5.10;99.90
13976;DHT22;7062;49.792;9.946;2022-12-07T01:56:22;5.00;99.90
13976;DHT22;7062;49.792;9.946;2022-12-07T01:58:51;5.10;99.90
13976;DHT22;7062;49.792;9.946;2022-12-07T02:01:17;5.00;99.90
13976;DHT22;7062;49.792;9.946;2022-12-07T02:03:44;4.90;99.90
13976;DHT22;7062;49.792;9.946;2022-12-07T02:06:12;5.00;99.90
13976;DHT22;7062;49.792;9.946;2022-12-07T02:08:40;5.00;99.90
13976;DHT22;7062;49.792;9.946;2022-12-07T02:11:07;4.90;99.90
13976;DHT22;7062;49.792;9.946;2022-12-07T02:13:35;4.90;99.90
13976;DHT22;7062;49.792;9.946;2022-12-07T02:27:22;5.00;99.90
13976;DHT22;7062;49.792;9.946;2022-12-07T02:33:22;5.10;99.90
13976;DHT22;7062;49.792;9.946;2022-12-07T02:36:10;5.00;99.90
13976;DHT22;7062;49.792;9.946;2022-12-07T02:41:26;5.10;99.90
13976;DHT22;7062;49.792;9.946;2022-12-07T02:44:06;5.10;99.90
13976;DHT22;7062;49.792;9.946;2022-12-07T02:46:37;5.20;99.90
13976;DHT22;7062;49.792;9.946;2022-12-07T02:49:04;5.20;99.90
13976;DHT22;7062;49.792;9.946;2022-12-07T02:51:31;5.10;99.90
13976;DHT22;7062;49.792;9.946;2022-12-07T02:53:56;5.10;99.90
13976;DHT22;7062;49.792;9.946;2022-12-07T03:10:09;5.10;99.90
13976;DHT22;7062;49.792;9.946;2022-12-07T03:15:27;5.00;99.90
13976;DHT22;7062;49.792;9.946;2022-12-07T03:17:56;4.90;99.90
13976;DHT22;7062;49.792;9.946;2022-12-07T03:20:22;4.90;99.90
13976;DHT22;7062;49.792;9.946;2022-12-07T03:22:51;4.90;99.90
13976;DHT22;7062;49.792;9.946;2022-12-07T03:25:18;4.80;99.90
13976;DHT22;7062;49.792;9.946;2022-12-07T03:27:51;4.80;99.90
13976;DHT22;7062;49.792;9.946;2022-12-07T03:30:20;4.90;99.90
13976;DHT22;7062;49.792;9.946;2022-12-07T03:35:27;4.70;99.90
13976;DHT22;7062;49.792;9.946;2022-12-07T03:38:22;4.70;99.90
13976;DHT22;7062;49.792;9.946;2022-12-07T03:41:01;4.70;99.90
13976;DHT22;7062;49.792;9.946;2022-12-07T03:43:30;4.70;99.90
13976;DHT22;7062;49.792;9.946;2022-12-07T03:46:24;4.70;99.90
13976;DHT22;7062;49.792;9.946;2022-12-07T03:52:02;4.70;99.90
13976;DHT22;7062;49.792;9.946;2022-12-07T03:54:56;4.80;99.90
13976;DHT22;7062;49.792;9.946;2022-12-07T03:57:21;4.80;99.90
13976;DHT22;7062;49.792;9.946;2022-12-07T03:59:48;5.00;99.90
13976;DHT22;7062;49.792;9.946;2022-12-07T04:02:14;4.90;99.90
13976;DHT22;7062;49.792;9.946;2022-12-07T04:04:41;4.80;99.90
13976;DHT22;7062;49.792;9.946;2022-12-07T04:07:08;4.80;99.90
13976;DHT22;7062;49.792;9.946;2022-12-07T04:09:34;4.70;99.90
13976;DHT22;7062;49.792;9.946;2022-12-07T04:11:59;4.80;99.90
13976;DHT22;7062;49.792;9.946;2022-12-07T04:14:25;4.80;99.90
13976;DHT22;7062;49.792;9.946;2022-12-07T04:16:56;4.80;99.90
13976;DHT22;7062;49.792;9.946;2022-12-07T04:19:27;4.90;99.90
13976;DHT22;7062;49.792;9.946;2022-12-07T04:21:53;4.80;99.90
13976;DHT22;7062;49.792;9.946;2022-12-07T04:24:19;4.80;99.90
13976;DHT22;7062;49.792;9.946;2022-12-07T04:26:45;4.70;99.90
13976;DHT22;7062;49.792;9.946;2022-12-07T04:29:11;4.70;99.90
13976;DHT22;7062;49.792;9.946;2022-12-07T04:31:37;4.60;99.90
13976;DHT22;7062;49.792;9.946;2022-12-07T04:34:04;4.60;99.90
13976;DHT22;7062;49.792;9.946;2022-12-07T04:36:31;4.60;99.90
13976;DHT22;7062;49.792;9.946;2022-12-07T04:38:57;4.60;99.90
13976;DHT22;7062;49.792;9.946;2022-12-07T04:41:23;4.70;99.90
13976;DHT22;7062;49.792;9.946;2022-12-07T04:43:55;4.80;99.90
13976;DHT22;7062;49.792;9.946;2022-12-07T04:46:22;4.70;99.90
13976;DHT22;7062;49.792;9.946;2022-12-07T04:48:48;4.80;99.90
13976;DHT22;7062;49.792;9.946;2022-12-07T04:51:19;4.70;99.90
13976;DHT22;7062;49.792;9.946;2022-12-07T04:53:46;4.70;99.90
13976;DHT22;7062;49.792;9.946;2022-12-07T04:56:11;4.80;99.90
13976;DHT22;7062;49.792;9.946;2022-12-07T04:58:37;4.80;99.90
13976;DHT22;7062;49.792;9.946;2022-12-07T05:01:03;4.80;99.90
13976;DHT22;7062;49.792;9.946;2022-12-07T05:03:28;4.70;99.90
13976;DHT22;7062;49.792;9.946;2022-12-07T05:05:54;4.70;99.90
13976;DHT22;7062;49.792;9.946;2022-12-07T05:08:20;4.70;99.90
13976;DHT22;7062;49.792;9.946;2022-12-07T05:10:45;4.70;99.90
13976;DHT22;7062;49.792;9.946;2022-12-07T05:13:11;4.60;99.90
13976;DHT22;7062;49.792;9.946;2022-12-07T05:15:36;4.70;99.90
13976;DHT22;7062;49.792;9.946;2022-12-07T05:18:02;4.70;99.90
13976;DHT22;7062;49.792;9.946;2022-12-07T05:20:28;4.80;99.90
13976;DHT22;7062;49.792;9.946;2022-12-07T05:22:54;4.70;99.90
13976;DHT22;7062;49.792;9.946;2022-12-07T05:25:20;4.60;99.90
13976;DHT22;7062;49.792;9.946;2022-12-07T05:27:45;4.60;99.90
13976;DHT22;7062;49.792;9.946;2022-12-07T05:30:11;4.70;99.90
13976;DHT22;7062;49.792;9.946;2022-12-07T05:32:37;4.70;99.90
13976;DHT22;7062;49.792;9.946;2022-12-07T05:35:03;4.70;99.90
13976;DHT22;7062;49.792;9.946;2022-12-07T05:37:29;4.70;99.90
13976;DHT22;7062;49.792;9.946;2022-12-07T05:39:54;4.70;99.90
13976;DHT22;7062;49.792;9.946;2022-12-07T05:42:20;4.70;99.90
13976;DHT22;7062;49.792;9.946;2022-12-07T05:44:46;4.60;99.90
13976;DHT22;7062;49.792;9.946;2022-12-07T05:47:14;4.60;99.90
13976;DHT22;7062;49.792;9.946;2022-12-07T05:49:40;4.60;99.90
13976;DHT22;7062;49.792;9.946;2022-12-07T05:52:05;4.70;99.90
13976;DHT22;7062;49.792;9.946;2022-12-07T05:54:31;4.60;99.90
13976;DHT22;7062;49.792;9.946;2022-12-07T05:56:57;4.60;99.90
13976;DHT22;7062;49.792;9.946;2022-12-07T05:59:23;4.60;99.90
13976;DHT22;7062;49.792;9.946;2022-12-07T06:02:04;4.60;99.90
13976;DHT22;7062;49.792;9.946;2022-12-07T06:04:32;4.60;99.90
13976;DHT22;7062;49.792;9.946;2022-12-07T06:06:58;4.60;99.90
13976;DHT22;7062;49.792;9.946;2022-12-07T06:09:25;4.70;99.90
13976;DHT22;7062;49.792;9.946;2022-12-07T06:11:51;4.70;99.90
13976;DHT22;7062;49.792;9.946;2022-12-07T06:14:36;4.70;99.90
13976;DHT22;7062;49.792;9.946;2022-12-07T06:17:02;4.50;99.90
13976;DHT22;7062;49.792;9.946;2022-12-07T06:19:27;4.50;99.90
13976;DHT22;7062;49.792;9.946;2022-12-07T06:21:53;4.50;99.90
13976;DHT22;7062;49.792;9.946;2022-12-07T06:24:19;4.50;99.90
13976;DHT22;7062;49.792;9.946;2022-12-07T06:26:45;4.60;99.90
13976;DHT22;7062;49.792;9.946;2022-12-07T06:29:12;4.50;99.90
13976;DHT22;7062;49.792;9.946;2022-12-07T06:31:38;4.50;99.90
13976;DHT22;7062;49.792;9.946;2022-12-07T06:34:13;4.50;99.90
13976;DHT22;7062;49.792;9.946;2022-12-07T06:36:39;4.50;99.90
13976;DHT22;7062;49.792;9.946;2022-12-07T06:39:06;4.60;99.90
13976;DHT22;7062;49.792;9.946;2022-12-07T06:41:34;4.60;99.90
13976;DHT22;7062;49.792;9.946;2022-12-07T06:44:00;4.70;99.90
13976;DHT22;7062;49.792;9.946;2022-12-07T06:46:26;4.60;99.90
13976;DHT22;7062;49.792;9.946;2022-12-07T06:48:51;4.60;99.90
13976;DHT22;7062;49.792;9.946;2022-12-07T06:51:17;4.60;99.90
13976;DHT22;7062;49.792;9.946;2022-12-07T06:53:42;4.70;99.90
13976;DHT22;7062;49.792;9.946;2022-12-07T06:56:08;4.70;99.90
13976;DHT22;7062;49.792;9.946;2022-12-07T06:58:34;4.60;99.90
13976;DHT22;7062;49.792;9.946;2022-12-07T07:00:59;4.70;99.90
13976;DHT22;7062;49.792;9.946;2022-12-07T07:03:25;4.60;99.90
13976;DHT22;7062;49.792;9.946;2022-12-07T07:05:50;4.60;99.90
13976;DHT22;7062;49.792;9.946;2022-12-07T07:08:16;4.60;99.90
13976;DHT22;7062;49.792;9.946;2022-12-07T07:10:42;4.60;99.90
13976;DHT22;7062;49.792;9.946;2022-12-07T07:13:08;4.70;99.90
13976;DHT22;7062;49.792;9.946;2022-12-07T07:15:33;4.70;99.90
13976;DHT22;7062;49.792;9.946;2022-12-07T07:18:00;4.70;99.90
13976;DHT22;7062;49.792;9.946;2022-12-07T07:20:26;4.90;99.90
13976;DHT22;7062;49.792;9.946;2022-12-07T07:22:54;4.80;99.90
13976;DHT22;7062;49.792;9.946;2022-12-07T07:25:19;4.80;99.90
13976;DHT22;7062;49.792;9.946;2022-12-07T07:27:45;4.90;99.90
13976;DHT22;7062;49.792;9.946;2022-12-07T07:30:11;4.80;99.90
13976;DHT22;7062;49.792;9.946;2022-12-07T07:32:37;4.80;99.90
13976;DHT22;7062;49.792;9.946;2022-12-07T07:35:03;4.80;99.90
13976;DHT22;7062;49.792;9.946;2022-12-07T07:37:29;4.90;99.90
13976;DHT22;7062;49.792;9.946;2022-12-07T07:39:54;4.80;99.90
13976;DHT22;7062;49.792;9.946;2022-12-07T07:42:20;4.80;99.90
13976;DHT22;7062;49.792;9.946;2022-12-07T07:44:46;4.80;99.90
13976;DHT22;7062;49.792;9.946;2022-12-07T07:47:11;4.80;99.90
13976;DHT22;7062;49.792;9.946;2022-12-07T07:49:37;4.90;99.90
13976;DHT22;7062;49.792;9.946;2022-12-07T07:52:03;5.00;99.90
13976;DHT22;7062;49.792;9.946;2022-12-07T07:54:30;5.00;99.90
13976;DHT22;7062;49.792;9.946;2022-12-07T07:56:55;5.10;99.90
13976;DHT22;7062;49.792;9.946;2022-12-07T07:59:21;5.10;99.90
13976;DHT22;7062;49.792;9.946;2022-12-07T08:01:47;5.10;99.90
13976;DHT22;7062;49.792;9.946;2022-12-07T08:04:12;5.20;99.90
13976;DHT22;7062;49.792;9.946;2022-12-07T08:06:38;5.10;99.90
13976;DHT22;7062;49.792;9.946;2022-12-07T08:09:03;5.20;99.90
13976;DHT22;7062;49.792;9.946;2022-12-07T08:11:31;5.10;99.90
13976;DHT22;7062;49.792;9.946;2022-12-07T08:13:56;5.10;99.90
13976;DHT22;7062;49.792;9.946;2022-12-07T08:16:22;5.10;99.90
13976;DHT22;7062;49.792;9.946;2022-12-07T08:18:48;5.00;99.90
13976;DHT22;7062;49.792;9.946;2022-12-07T08:21:14;5.20;99.90
13976;DHT22;7062;49.792;9.946;2022-12-07T08:23:41;5.30;99.90
13976;DHT22;7062;49.792;9.946;2022-12-07T08:26:17;5.10;99.90
13976;DHT22;7062;49.792;9.946;2022-12-07T08:28:43;5.10;99.90
13976;DHT22;7062;49.792;9.946;2022-12-07T08:31:13;5.20;99.90
13976;DHT22;7062;49.792;9.946;2022-12-07T08:33:39;5.10;99.90
13976;DHT22;7062;49.792;9.946;2022-12-07T08:36:08;5.20;99.90
13976;DHT22;7062;49.792;9.946;2022-12-07T08:38:35;5.20;99.90
13976;DHT22;7062;49.792;9.946;2022-12-07T08:41:01;5.20;99.90
13976;DHT22;7062;49.792;9.946;2022-12-07T08:43:27;5.30;99.90
13976;DHT22;7062;49.792;9.946;2022-12-07T08:48:58;5.40;99.90
13976;DHT22;7062;49.792;9.946;2022-12-07T08:51:27;5.60;99.90
13976;DHT22;7062;49.792;9.946;2022-12-07T08:53:54;5.60;99.90
13976;DHT22;7062;49.792;9.946;2022-12-07T08:56:21;5.80;99.90
13976;DHT22;7062;49.792;9.946;2022-12-07T08:58:47;5.80;99.90
13976;DHT22;7062;49.792;9.946;2022-12-07T09:01:13;5.60;99.90
13976;DHT22;7062;49.792;9.946;2022-12-07T09:03:39;5.60;99.90
13976;DHT22;7062;49.792;9.946;2022-12-07T09:06:05;5.60;99.90
13976;DHT22;7062;49.792;9.946;2022-12-07T09:08:34;5.70;99.90
13976;DHT22;7062;49.792;9.946;2022-12-07T09:11:01;5.70;99.90
13976;DHT22;7062;49.792;9.946;2022-12-07T09:13:27;5.80;99.90
13976;DHT22;7062;49.792;9.946;2022-12-07T09:15:52;5.70;99.90
13976;DHT22;7062;49.792;9.946;2022-12-07T09:18:18;5.50;99.90
13976;DHT22;7062;49.792;9.946;2022-12-07T09:20:44;5.50;99.90
13976;DHT22;7062;49.792;9.946;2022-12-07T09:23:09;5.50;99.90
13976;DHT22;7062;49.792;9.946;2022-12-07T09:25:35;5.60;99.90
13976;DHT22;7062;49.792;9.946;2022-12-07T09:28:01;5.60;99.90
13976;DHT22;7062;49.792;9.946;2022-12-07T09:30:27;5.70;99.90
13976;DHT22;7062;49.792;9.946;2022-12-07T09:32:56;5.70;99.90
13976;DHT22;7062;49.792;9.946;2022-12-07T09:35:23;5.70;99.90
13976;DHT22;7062;49.792;9.946;2022-12-07T09:37:49;5.70;99.90
13976;DHT22;7062;49.792;9.946;2022-12-07T09:40:16;5.80;99.90
13976;DHT22;7062;49.792;9.946;2022-12-07T09:42:46;6.00;99.90
13976;DHT22;7062;49.792;9.946;2022-12-07T09:45:36;6.20;99.90
13976;DHT22;7062;49.792;9.946;2022-12-07T09:48:03;6.20;99.90
13976;DHT22;7062;49.792;9.946;2022-12-07T09:50:29;6.00;99.90
13976;DHT22;7062;49.792;9.946;2022-12-07T09:53:09;6.10;99.90
13976;DHT22;7062;49.792;9.946;2022-12-07T09:55:38;6.20;99.90
13976;DHT22;7062;49.792;9.946;2022-12-07T09:58:06;6.40;99.90
13976;DHT22;7062;49.792;9.946;2022-12-07T10:00:32;6.40;99.90
13976;DHT22;7062;49.792;9.946;2022-12-07T10:02:58;6.50;99.90
13976;DHT22;7062;49.792;9.946;2022-12-07T10:05:34;6.50;99.90
13976;DHT22;7062;49.792;9.946;2022-12-07T10:08:02;6.70;99.90
13976;DHT22;7062;49.792;9.946;2022-12-07T10:10:33;6.80;99.90
13976;DHT22;7062;49.792;9.946;2022-12-07T10:15:56;6.90;99.90
13976;DHT22;7062;49.792;9.946;2022-12-07T10:18:30;6.70;99.90
13976;DHT22;7062;49.792;9.946;2022-12-07T10:23:30;6.50;99.90
13976;DHT22;7062;49.792;9.946;2022-12-07T10:25:55;6.40;99.90
13976;DHT22;7062;49.792;9.946;2022-12-07T10:28:22;6.30;99.90
13976;DHT22;7062;49.792;9.946;2022-12-07T10:33:36;6.10;99.90
13976;DHT22;7062;49.792;9.946;2022-12-07T10:39:02;6.30;99.90
13976;DHT22;7062;49.792;9.946;2022-12-07T10:41:29;6.40;99.90
13976;DHT22;7062;49.792;9.946;2022-12-07T10:43:56;6.40;99.90
13976;DHT22;7062;49.792;9.946;2022-12-07T10:58:30;6.30;99.90
13976;DHT22;7062;49.792;9.946;2022-12-07T11:14:37;6.30;99.90
13976;DHT22;7062;49.792;9.946;2022-12-07T11:23:34;6.40;99.90
13976;DHT22;7062;49.792;9.946;2022-12-07T11:25:50;6.50;99.90
13976;DHT22;7062;49.792;9.946;2022-12-07T11:31:38;6.70;99.90
13976;DHT22;7062;49.792;9.946;2022-12-07T11:37:13;7.10;99.90
13976;DHT22;7062;49.792;9.946;2022-12-07T11:39:54;7.50;99.90
13976;DHT22;7062;49.792;9.946;2022-12-07T11:42:31;7.60;99.90
13976;DHT22;7062;49.792;9.946;2022-12-07T11:48:00;7.30;99.90
13976;DHT22;7062;49.792;9.946;2022-12-07T11:50:36;7.20;99.90
13976;DHT22;7062;49.792;9.946;2022-12-07T12:03:45;7.20;99.90
13976;DHT22;7062;49.792;9.946;2022-12-07T12:06:11;7.00;99.90
13976;DHT22;7062;49.792;9.946;2022-12-07T12:19:42;7.00;99.90
13976;DHT22;7062;49.792;9.946;2022-12-07T12:22:18;7.00;99.90
13976;DHT22;7062;49.792;9.946;2022-12-07T12:24:50;7.20;99.90
13976;DHT22;7062;49.792;9.946;2022-12-07T12:27:30;7.30;99.90
13976;DHT22;7062;49.792;9.946;2022-12-07T12:30:00;7.20;99.90
13976;DHT22;7062;49.792;9.946;2022-12-07T12:32:53;7.10;99.90
13976;DHT22;7062;49.792;9.946;2022-12-07T12:35:36;7.30;99.90
13976;DHT22;7062;49.792;9.946;2022-12-07T12:38:29;7.50;99.90
13976;DHT22;7062;49.792;9.946;2022-12-07T12:40:56;7.60;99.90
13976;DHT22;7062;49.792;9.946;2022-12-07T12:43:44;7.50;99.90
13976;DHT22;7062;49.792;9.946;2022-12-07T12:51:50;7.50;99.90
13976;DHT22;7062;49.792;9.946;2022-12-07T12:59:57;7.20;99.90
13976;DHT22;7062;49.792;9.946;2022-12-07T13:02:34;7.10;99.90
13976;DHT22;7062;49.792;9.946;2022-12-07T13:15:55;6.30;99.90
13976;DHT22;7062;49.792;9.946;2022-12-07T13:18:40;6.20;99.90
13976;DHT22;7062;49.792;9.946;2022-12-07T13:26:12;6.10;99.90
13976;DHT22;7062;49.792;9.946;2022-12-07T13:28:42;6.30;99.90
13976;DHT22;7062;49.792;9.946;2022-12-07T13:31:33;6.20;99.90
13976;DHT22;7062;49.792;9.946;2022-12-07T13:34:00;6.20;99.90
13976;DHT22;7062;49.792;9.946;2022-12-07T13:36:37;6.30;99.90
13976;DHT22;7062;49.792;9.946;2022-12-07T13:39:19;6.60;99.90
13976;DHT22;7062;49.792;9.946;2022-12-07T13:41:49;6.70;99.90
13976;DHT22;7062;49.792;9.946;2022-12-07T13:44:17;6.70;99.90
13976;DHT22;7062;49.792;9.946;2022-12-07T13:49:38;6.90;99.90
13976;DHT22;7062;49.792;9.946;2022-12-07T13:52:29;7.00;99.90
13976;DHT22;7062;49.792;9.946;2022-12-07T13:57:30;7.20;99.90
13976;DHT22;7062;49.792;9.946;2022-12-07T13:59:59;7.30;99.90
13976;DHT22;7062;49.792;9.946;2022-12-07T14:02:31;7.30;99.90
13976;DHT22;7062;49.792;9.946;2022-12-07T14:05:14;7.30;99.90
13976;DHT22;7062;49.792;9.946;2022-12-07T14:07:55;7.30;99.90
13976;DHT22;7062;49.792;9.946;2022-12-07T14:10:25;7.40;99.90
13976;DHT22;7062;49.792;9.946;2022-12-07T14:12:51;7.30;99.90
13976;DHT22;7062;49.792;9.946;2022-12-07T14:15:22;7.20;99.90
13976;DHT22;7062;49.792;9.946;2022-12-07T14:17:53;7.20;99.90
13976;DHT22;7062;49.792;9.946;2022-12-07T14:20:36;7.10;99.90
13976;DHT22;7062;49.792;9.946;2022-12-07T14:23:03;7.20;99.90
13976;DHT22;7062;49.792;9.946;2022-12-07T14:25:47;7.30;99.90
13976;DHT22;7062;49.792;9.946;2022-12-07T14:28:29;7.10;99.90
13976;DHT22;7062;49.792;9.946;2022-12-07T14:30:55;7.10;99.90
13976;DHT22;7062;49.792;9.946;2022-12-07T14:33:21;7.00;99.90
13976;DHT22;7062;49.792;9.946;2022-12-07T14:35:47;6.90;99.90
13976;DHT22;7062;49.792;9.946;2022-12-07T14:38:13;6.80;99.90
13976;DHT22;7062;49.792;9.946;2022-12-07T14:40:38;6.80;99.90
13976;DHT22;7062;49.792;9.946;2022-12-07T14:43:12;6.70;99.90
13976;DHT22;7062;49.792;9.946;2022-12-07T14:45:39;6.70;99.90
13976;DHT22;7062;49.792;9.946;2022-12-07T14:48:16;6.60;99.90
13976;DHT22;7062;49.792;9.946;2022-12-07T14:50:49;6.50;99.90
13976;DHT22;7062;49.792;9.946;2022-12-07T14:53:17;6.40;99.90
13976;DHT22;7062;49.792;9.946;2022-12-07T14:55:43;6.30;99.90
13976;DHT22;7062;49.792;9.946;2022-12-07T14:58:16;6.30;99.90
13976;DHT22;7062;49.792;9.946;2022-12-07T15:00:43;6.20;99.90
13976;DHT22;7062;49.792;9.946;2022-12-07T15:03:09;6.20;99.90
13976;DHT22;7062;49.792;9.946;2022-12-07T15:05:35;6.20;99.90
13976;DHT22;7062;49.792;9.946;2022-12-07T15:08:01;6.10;99.90
13976;DHT22;7062;49.792;9.946;2022-12-07T15:10:29;6.10;99.90
13976;DHT22;7062;49.792;9.946;2022-12-07T15:13:01;5.90;99.90
13976;DHT22;7062;49.792;9.946;2022-12-07T15:15:48;5.90;99.90
13976;DHT22;7062;49.792;9.946;2022-12-07T15:18:16;5.80;99.90
13976;DHT22;7062;49.792;9.946;2022-12-07T15:20:42;5.90;99.90
13976;DHT22;7062;49.792;9.946;2022-12-07T15:23:07;5.90;99.90
13976;DHT22;7062;49.792;9.946;2022-12-07T15:25:33;5.80;99.90
13976;DHT22;7062;49.792;9.946;2022-12-07T15:27:59;5.80;99.90
13976;DHT22;7062;49.792;9.946;2022-12-07T15:30:25;5.80;99.90
13976;DHT22;7062;49.792;9.946;2022-12-07T15:32:51;5.80;99.90
13976;DHT22;7062;49.792;9.946;2022-12-07T15:35:17;5.80;99.90
13976;DHT22;7062;49.792;9.946;2022-12-07T15:37:43;5.80;99.90
13976;DHT22;7062;49.792;9.946;2022-12-07T15:40:09;5.80;99.90
13976;DHT22;7062;49.792;9.946;2022-12-07T15:42:36;5.80;99.90
13976;DHT22;7062;49.792;9.946;2022-12-07T15:45:02;5.70;99.90
13976;DHT22;7062;49.792;9.946;2022-12-07T15:47:36;5.70;99.90
13976;DHT22;7062;49.792;9.946;2022-12-07T15:50:04;5.70;99.90
13976;DHT22;7062;49.792;9.946;2022-12-07T15:52:30;5.70;99.90
13976;DHT22;7062;49.792;9.946;2022-12-07T15:54:56;5.70;99.90
13976;DHT22;7062;49.792;9.946;2022-12-07T15:57:22;5.60;99.90
13976;DHT22;7062;49.792;9.946;2022-12-07T15:59:47;5.60;99.90
13976;DHT22;7062;49.792;9.946;2022-12-07T16:02:13;5.70;99.90
13976;DHT22;7062;49.792;9.946;2022-12-07T16:04:39;5.80;99.90
13976;DHT22;7062;49.792;9.946;2022-12-07T16:07:05;5.80;99.90
13976;DHT22;7062;49.792;9.946;2022-12-07T16:09:31;5.70;99.90
13976;DHT22;7062;49.792;9.946;2022-12-07T16:11:56;5.80;99.90
13976;DHT22;7062;49.792;9.946;2022-12-07T16:14:22;5.80;99.90
13976;DHT22;7062;49.792;9.946;2022-12-07T16:16:48;5.80;99.90
13976;DHT22;7062;49.792;9.946;2022-12-07T16:19:14;5.50;99.90
13976;DHT22;7062;49.792;9.946;2022-12-07T16:21:40;5.30;99.90
13976;DHT22;7062;49.792;9.946;2022-12-07T16:24:06;5.10;99.90
13976;DHT22;7062;49.792;9.946;2022-12-07T16:26:32;5.10;99.90
13976;DHT22;7062;49.792;9.946;2022-12-07T16:28:58;5.00;99.90
13976;DHT22;7062;49.792;9.946;2022-12-07T16:31:25;4.80;99.90
13976;DHT22;7062;49.792;9.946;2022-12-07T16:33:56;4.80;99.90
13976;DHT22;7062;49.792;9.946;2022-12-07T16:36:22;4.70;99.90
13976;DHT22;7062;49.792;9.946;2022-12-07T16:38:50;4.70;99.90
13976;DHT22;7062;49.792;9.946;2022-12-07T16:41:16;4.80;99.90
13976;DHT22;7062;49.792;9.946;2022-12-07T16:43:42;4.70;99.90
13976;DHT22;7062;49.792;9.946;2022-12-07T16:46:08;4.80;99.90
13976;DHT22;7062;49.792;9.946;2022-12-07T16:48:38;4.80;99.90
13976;DHT22;7062;49.792;9.946;2022-12-07T16:51:09;4.90;99.90
13976;DHT22;7062;49.792;9.946;2022-12-07T16:53:36;4.80;99.90
13976;DHT22;7062;49.792;9.946;2022-12-07T16:56:03;4.80;99.90
13976;DHT22;7062;49.792;9.946;2022-12-07T16:58:29;4.90;99.90
13976;DHT22;7062;49.792;9.946;2022-12-07T17:00:55;4.90;99.90
13976;DHT22;7062;49.792;9.946;2022-12-07T17:03:21;5.00;99.90
13976;DHT22;7062;49.792;9.946;2022-12-07T17:05:47;5.10;99.90
13976;DHT22;7062;49.792;9.946;2022-12-07T17:08:14;5.10;99.90
13976;DHT22;7062;49.792;9.946;2022-12-07T17:10:43;5.00;99.90
13976;DHT22;7062;49.792;9.946;2022-12-07T17:13:09;5.00;99.90
13976;DHT22;7062;49.792;9.946;2022-12-07T17:15:59;5.00;99.90
13976;DHT22;7062;49.792;9.946;2022-12-07T17:18:27;5.00;99.90
13976;DHT22;7062;49.792;9.946;2022-12-07T17:20:53;5.00;99.90
13976;DHT22;7062;49.792;9.946;2022-12-07T17:23:19;5.00;99.90
13976;DHT22;7062;49.792;9.946;2022-12-07T17:25:45;5.00;99.90
13976;DHT22;7062;49.792;9.946;2022-12-07T17:28:11;5.00;99.90
13976;DHT22;7062;49.792;9.946;2022-12-07T17:30:38;5.10;99.90
13976;DHT22;7062;49.792;9.946;2022-12-07T17:33:03;5.00;99.90
13976;DHT22;7062;49.792;9.946;2022-12-07T17:35:29;5.10;99.90
13976;DHT22;7062;49.792;9.946;2022-12-07T17:37:54;5.10;99.90
13976;DHT22;7062;49.792;9.946;2022-12-07T17:40:21;5.00;99.90
13976;DHT22;7062;49.792;9.946;2022-12-07T17:42:47;5.00;99.90
13976;DHT22;7062;49.792;9.946;2022-12-07T17:45:16;5.10;99.90
13976;DHT22;7062;49.792;9.946;2022-12-07T17:47:42;4.90;99.90
13976;DHT22;7062;49.792;9.946;2022-12-07T17:50:08;5.00;99.90
13976;DHT22;7062;49.792;9.946;2022-12-07T17:52:38;5.00;99.90
13976;DHT22;7062;49.792;9.946;2022-12-07T17:55:23;5.00;99.90
13976;DHT22;7062;49.792;9.946;2022-12-07T17:57:48;5.00;99.90
13976;DHT22;7062;49.792;9.946;2022-12-07T18:00:15;5.10;99.90
13976;DHT22;7062;49.792;9.946;2022-12-07T18:02:41;5.10;99.90
13976;DHT22;7062;49.792;9.946;2022-12-07T18:05:07;5.10;99.90
13976;DHT22;7062;49.792;9.946;2022-12-07T18:07:32;5.20;99.90
13976;DHT22;7062;49.792;9.946;2022-12-07T18:09:58;5.10;99.90
13976;DHT22;7062;49.792;9.946;2022-12-07T18:12:24;5.10;99.90
13976;DHT22;7062;49.792;9.946;2022-12-07T18:14:49;5.10;99.90
13976;DHT22;7062;49.792;9.946;2022-12-07T18:17:16;5.10;99.90
13976;DHT22;7062;49.792;9.946;2022-12-07T18:19:42;5.10;99.90
13976;DHT22;7062;49.792;9.946;2022-12-07T18:22:08;5.10;99.90
13976;DHT22;7062;49.792;9.946;2022-12-07T18:24:34;5.10;99.90
13976;DHT22;7062;49.792;9.946;2022-12-07T18:27:00;5.20;99.90
13976;DHT22;7062;49.792;9.946;2022-12-07T18:29:25;5.10;99.90
13976;DHT22;7062;49.792;9.946;2022-12-07T18:31:51;5.10;99.90
13976;DHT22;7062;49.792;9.946;2022-12-07T18:34:18;5.10;99.90
13976;DHT22;7062;49.792;9.946;2022-12-07T18:36:46;5.10;99.90
13976;DHT22;7062;49.792;9.946;2022-12-07T18:39:13;5.00;99.90
13976;DHT22;7062;49.792;9.946;2022-12-07T18:41:40;4.90;99.90